sensor_id;sensor_type;location;lat;lon;timestamp;temperature;humidity
24224;DHT22;12359;49.716;9.212;2023-03-19T00:01:28;8.90;13.40
24224;DHT22;12359;49.716;9.212;2023-03-19T00:03:54;8.90;12.20
24224;DHT22;12359;49.716;9.212;2023-03-19T00:06:20;8.90;11.50
24224;DHT22;12359;49.716;9.212;2023-03-19T00:08:47;8.90;7.70
24224;DHT22;12359;49.716;9.212;2023-03-19T00:11:13;8.90;10.70
24224;DHT22;12359;49.716;9.212;2023-03-19T00:13:39;8.80;7.10
24224;DHT22;12359;49.716;9.212;2023-03-19T00:16:05;8.80;4.60
24224;DHT22;12359;49.716;9.212;2023-03-19T00:18:32;8.80;4.10
24224;DHT22;12359;49.716;9.212;2023-03-19T00:20:58;8.80;6.60
24224;DHT22;12359;49.716;9.212;2023-03-19T00:23:23;8.80;3.80
24224;DHT22;12359;49.716;9.212;2023-03-19T00:25:49;8.80;5.60
24224;DHT22;12359;49.716;9.212;2023-03-19T00:28:15;8.70;4.00
24224;DHT22;12359;49.716;9.212;2023-03-19T00:30:41;8.70;1.00
24224;DHT22;12359;49.716;9.212;2023-03-19T00:33:09;8.70;4.70
24224;DHT22;12359;49.716;9.212;2023-03-19T00:35:35;8.60;9.80
24224;DHT22;12359;49.716;9.212;2023-03-19T00:38:00;8.50;13.10
24224;DHT22;12359;49.716;9.212;2023-03-19T00:40:26;8.50;14.40
24224;DHT22;12359;49.716;9.212;2023-03-19T00:42:52;8.40;21.00
24224;DHT22;12359;49.716;9.212;2023-03-19T00:45:18;8.30;25.90
24224;DHT22;12359;49.716;9.212;2023-03-19T00:47:43;8.30;29.90
24224;DHT22;12359;49.716;9.212;2023-03-19T00:50:10;8.30;31.20
24224;DHT22;12359;49.716;9.212;2023-03-19T00:52:36;8.40;34.10
24224;DHT22;12359;49.716;9.212;2023-03-19T00:55:01;8.40;36.20
24224;DHT22;12359;49.716;9.212;2023-03-19T00:57:27;8.30;41.20
24224;DHT22;12359;49.716;9.212;2023-03-19T00:59:53;8.40;40.20
24224;DHT22;12359;49.716;9.212;2023-03-19T01:02:18;8.30;35.00
24224;DHT22;12359;49.716;9.212;2023-03-19T01:04:47;8.30;35.00
24224;DHT22;12359;49.716;9.212;2023-03-19T01:07:12;8.20;36.00
24224;DHT22;12359;49.716;9.212;2023-03-19T01:09:38;8.20;33.60
24224;DHT22;12359;49.716;9.212;2023-03-19T01:12:04;8.10;38.60
24224;DHT22;12359;49.716;9.212;2023-03-19T01:14:30;8.10;42.00
24224;DHT22;12359;49.716;9.212;2023-03-19T01:16:56;8.20;42.00
24224;DHT22;12359;49.716;9.212;2023-03-19T01:19:22;8.30;41.60
24224;DHT22;12359;49.716;9.212;2023-03-19T01:21:48;8.30;40.30
24224;DHT22;12359;49.716;9.212;2023-03-19T01:24:15;8.30;41.10
24224;DHT22;12359;49.716;9.212;2023-03-19T01:26:41;8.30;40.00
24224;DHT22;12359;49.716;9.212;2023-03-19T01:29:07;8.40;39.30
24224;DHT22;12359;49.716;9.212;2023-03-19T01:31:34;8.30;38.20
24224;DHT22;12359;49.716;9.212;2023-03-19T01:34:03;8.30;41.70
24224;DHT22;12359;49.716;9.212;2023-03-19T01:36:29;8.20;44.90
24224;DHT22;12359;49.716;9.212;2023-03-19T01:38:54;8.20;44.10
24224;DHT22;12359;49.716;9.212;2023-03-19T01:41:22;8.30;44.80
24224;DHT22;12359;49.716;9.212;2023-03-19T01:43:48;8.30;45.10
24224;DHT22;12359;49.716;9.212;2023-03-19T01:48:54;8.40;43.30
24224;DHT22;12359;49.716;9.212;2023-03-19T01:51:25;8.40;42.80
24224;DHT22;12359;49.716;9.212;2023-03-19T01:53:56;8.50;41.10
24224;DHT22;12359;49.716;9.212;2023-03-19T01:56:27;8.50;36.90
24224;DHT22;12359;49.716;9.212;2023-03-19T01:58:57;8.40;33.30
24224;DHT22;12359;49.716;9.212;2023-03-19T02:01:23;8.40;35.30
24224;DHT22;12359;49.716;9.212;2023-03-19T02:03:50;8.40;35.80
24224;DHT22;12359;49.716;9.212;2023-03-19T02:06:20;8.40;36.30
24224;DHT22;12359;49.716;9.212;2023-03-19T02:08:47;8.40;37.00
24224;DHT22;12359;49.716;9.212;2023-03-19T02:11:13;8.30;39.10
24224;DHT22;12359;49.716;9.212;2023-03-19T02:13:39;8.30;42.50
24224;DHT22;12359;49.716;9.212;2023-03-19T02:16:05;8.30;44.30
24224;DHT22;12359;49.716;9.212;2023-03-19T02:18:31;8.30;40.70
24224;DHT22;12359;49.716;9.212;2023-03-19T02:21:04;8.30;43.20
24224;DHT22;12359;49.716;9.212;2023-03-19T02:26:25;8.30;46.60
24224;DHT22;12359;49.716;9.212;2023-03-19T02:28:53;8.30;45.40
24224;DHT22;12359;49.716;9.212;2023-03-19T02:31:19;8.30;42.60
24224;DHT22;12359;49.716;9.212;2023-03-19T02:34:06;8.30;40.90
24224;DHT22;12359;49.716;9.212;2023-03-19T02:37:26;8.30;43.80
24224;DHT22;12359;49.716;9.212;2023-03-19T02:39:58;8.30;42.00
24224;DHT22;12359;49.716;9.212;2023-03-19T02:42:27;8.20;45.50
24224;DHT22;12359;49.716;9.212;2023-03-19T02:44:53;8.20;47.00
24224;DHT22;12359;49.716;9.212;2023-03-19T02:47:19;8.20;43.80
24224;DHT22;12359;49.716;9.212;2023-03-19T02:49:44;8.20;44.20
24224;DHT22;12359;49.716;9.212;2023-03-19T02:52:10;8.20;42.00
24224;DHT22;12359;49.716;9.212;2023-03-19T02:54:36;8.20;40.80
24224;DHT22;12359;49.716;9.212;2023-03-19T02:57:02;8.20;40.40
24224;DHT22;12359;49.716;9.212;2023-03-19T02:59:28;8.10;41.20
24224;DHT22;12359;49.716;9.212;2023-03-19T03:01:54;8.10;44.90
24224;DHT22;12359;49.716;9.212;2023-03-19T03:04:20;8.20;44.50
24224;DHT22;12359;49.716;9.212;2023-03-19T03:06:48;8.10;43.60
24224;DHT22;12359;49.716;9.212;2023-03-19T03:09:14;8.10;46.40
24224;DHT22;12359;49.716;9.212;2023-03-19T03:11:39;8.10;43.80
24224;DHT22;12359;49.716;9.212;2023-03-19T03:14:06;8.10;42.60
24224;DHT22;12359;49.716;9.212;2023-03-19T03:16:32;8.10;40.50
24224;DHT22;12359;49.716;9.212;2023-03-19T03:18:58;8.00;42.60
24224;DHT22;12359;49.716;9.212;2023-03-19T03:21:24;7.90;43.50
24224;DHT22;12359;49.716;9.212;2023-03-19T03:23:50;7.90;45.80
24224;DHT22;12359;49.716;9.212;2023-03-19T03:26:18;7.90;47.70
24224;DHT22;12359;49.716;9.212;2023-03-19T03:28:43;7.90;49.40
24224;DHT22;12359;49.716;9.212;2023-03-19T03:31:10;7.90;50.60
24224;DHT22;12359;49.716;9.212;2023-03-19T03:33:36;7.90;49.70
24224;DHT22;12359;49.716;9.212;2023-03-19T03:36:02;7.90;48.90
24224;DHT22;12359;49.716;9.212;2023-03-19T03:38:28;7.90;51.70
24224;DHT22;12359;49.716;9.212;2023-03-19T03:40:53;7.90;48.70
24224;DHT22;12359;49.716;9.212;2023-03-19T03:43:20;7.90;48.00
24224;DHT22;12359;49.716;9.212;2023-03-19T03:45:47;7.80;46.90
24224;DHT22;12359;49.716;9.212;2023-03-19T03:48:13;7.80;47.60
24224;DHT22;12359;49.716;9.212;2023-03-19T03:50:39;7.90;47.00
24224;DHT22;12359;49.716;9.212;2023-03-19T03:53:05;7.80;48.00
24224;DHT22;12359;49.716;9.212;2023-03-19T03:55:31;7.90;44.20
24224;DHT22;12359;49.716;9.212;2023-03-19T03:57:57;7.80;47.30
24224;DHT22;12359;49.716;9.212;2023-03-19T04:00:23;7.80;46.00
24224;DHT22;12359;49.716;9.212;2023-03-19T04:02:49;7.80;45.00
24224;DHT22;12359;49.716;9.212;2023-03-19T04:05:16;7.80;48.30
24224;DHT22;12359;49.716;9.212;2023-03-19T04:07:42;7.70;49.20
24224;DHT22;12359;49.716;9.212;2023-03-19T04:10:09;7.70;49.90
24224;DHT22;12359;49.716;9.212;2023-03-19T04:12:36;7.70;50.50
24224;DHT22;12359;49.716;9.212;2023-03-19T04:15:03;7.70;54.10
24224;DHT22;12359;49.716;9.212;2023-03-19T04:17:29;7.70;50.60
24224;DHT22;12359;49.716;9.212;2023-03-19T04:19:55;7.70;50.80
24224;DHT22;12359;49.716;9.212;2023-03-19T04:22:21;7.70;48.60
24224;DHT22;12359;49.716;9.212;2023-03-19T04:24:47;7.70;50.60
24224;DHT22;12359;49.716;9.212;2023-03-19T04:27:12;7.70;52.00
24224;DHT22;12359;49.716;9.212;2023-03-19T04:29:38;7.80;52.30
24224;DHT22;12359;49.716;9.212;2023-03-19T04:32:04;7.80;52.90
24224;DHT22;12359;49.716;9.212;2023-03-19T04:34:30;7.70;53.60
24224;DHT22;12359;49.716;9.212;2023-03-19T04:36:56;7.70;54.40
24224;DHT22;12359;49.716;9.212;2023-03-19T04:39:23;7.70;55.00
24224;DHT22;12359;49.716;9.212;2023-03-19T04:41:49;7.80;53.60
24224;DHT22;12359;49.716;9.212;2023-03-19T04:44:15;7.80;51.10
24224;DHT22;12359;49.716;9.212;2023-03-19T04:46:41;7.90;47.30
24224;DHT22;12359;49.716;9.212;2023-03-19T04:49:09;8.00;45.80
24224;DHT22;12359;49.716;9.212;2023-03-19T04:51:34;8.00;43.70
24224;DHT22;12359;49.716;9.212;2023-03-19T04:54:00;8.10;42.80
24224;DHT22;12359;49.716;9.212;2023-03-19T04:56:26;8.10;41.60
24224;DHT22;12359;49.716;9.212;2023-03-19T04:58:52;8.10;41.50
24224;DHT22;12359;49.716;9.212;2023-03-19T05:01:18;8.10;41.90
24224;DHT22;12359;49.716;9.212;2023-03-19T05:03:44;8.10;44.20
24224;DHT22;12359;49.716;9.212;2023-03-19T05:06:10;8.00;43.20
24224;DHT22;12359;49.716;9.212;2023-03-19T05:08:36;8.10;44.20
24224;DHT22;12359;49.716;9.212;2023-03-19T05:11:02;8.00;46.80
24224;DHT22;12359;49.716;9.212;2023-03-19T05:13:28;7.90;49.50
24224;DHT22;12359;49.716;9.212;2023-03-19T05:15:54;7.90;51.40
24224;DHT22;12359;49.716;9.212;2023-03-19T05:18:20;7.90;50.80
24224;DHT22;12359;49.716;9.212;2023-03-19T05:20:46;7.90;52.70
24224;DHT22;12359;49.716;9.212;2023-03-19T05:23:12;7.90;50.30
24224;DHT22;12359;49.716;9.212;2023-03-19T05:25:38;7.90;49.70
24224;DHT22;12359;49.716;9.212;2023-03-19T05:28:04;8.00;47.00
24224;DHT22;12359;49.716;9.212;2023-03-19T05:30:30;8.10;45.30
24224;DHT22;12359;49.716;9.212;2023-03-19T05:32:57;8.10;42.60
24224;DHT22;12359;49.716;9.212;2023-03-19T05:35:24;8.20;40.00
24224;DHT22;12359;49.716;9.212;2023-03-19T05:37:50;8.20;38.90
24224;DHT22;12359;49.716;9.212;2023-03-19T05:40:16;8.20;33.50
24224;DHT22;12359;49.716;9.212;2023-03-19T05:42:42;8.20;31.80
24224;DHT22;12359;49.716;9.212;2023-03-19T05:45:08;8.20;30.90
24224;DHT22;12359;49.716;9.212;2023-03-19T05:47:33;8.20;32.20
24224;DHT22;12359;49.716;9.212;2023-03-19T05:49:59;8.20;29.70
24224;DHT22;12359;49.716;9.212;2023-03-19T05:52:25;8.20;32.30
24224;DHT22;12359;49.716;9.212;2023-03-19T05:54:51;8.10;39.40
24224;DHT22;12359;49.716;9.212;2023-03-19T05:57:16;8.10;40.40
24224;DHT22;12359;49.716;9.212;2023-03-19T05:59:42;8.00;41.70
24224;DHT22;12359;49.716;9.212;2023-03-19T06:02:08;8.00;42.00
24224;DHT22;12359;49.716;9.212;2023-03-19T06:04:34;8.10;40.70
24224;DHT22;12359;49.716;9.212;2023-03-19T06:07:00;8.10;40.10
24224;DHT22;12359;49.716;9.212;2023-03-19T06:09:25;8.20;37.70
24224;DHT22;12359;49.716;9.212;2023-03-19T06:11:51;8.20;31.80
24224;DHT22;12359;49.716;9.212;2023-03-19T06:14:17;8.30;31.30
24224;DHT22;12359;49.716;9.212;2023-03-19T06:16:43;8.30;30.30
24224;DHT22;12359;49.716;9.212;2023-03-19T06:19:08;8.30;30.00
24224;DHT22;12359;49.716;9.212;2023-03-19T06:21:35;8.30;31.70
24224;DHT22;12359;49.716;9.212;2023-03-19T06:24:01;8.30;32.10
24224;DHT22;12359;49.716;9.212;2023-03-19T06:26:26;8.30;29.80
24224;DHT22;12359;49.716;9.212;2023-03-19T06:28:52;8.40;29.70
24224;DHT22;12359;49.716;9.212;2023-03-19T06:31:18;8.30;30.70
24224;DHT22;12359;49.716;9.212;2023-03-19T06:33:44;8.20;34.90
24224;DHT22;12359;49.716;9.212;2023-03-19T06:36:10;8.20;38.20
24224;DHT22;12359;49.716;9.212;2023-03-19T06:38:35;8.30;39.90
24224;DHT22;12359;49.716;9.212;2023-03-19T06:41:01;8.30;37.80
24224;DHT22;12359;49.716;9.212;2023-03-19T06:43:27;8.40;36.20
24224;DHT22;12359;49.716;9.212;2023-03-19T06:45:53;8.50;34.30
24224;DHT22;12359;49.716;9.212;2023-03-19T06:48:19;8.50;33.00
24224;DHT22;12359;49.716;9.212;2023-03-19T06:50:45;8.50;32.70
24224;DHT22;12359;49.716;9.212;2023-03-19T06:53:14;8.60;31.90
24224;DHT22;12359;49.716;9.212;2023-03-19T06:55:41;8.70;29.20
24224;DHT22;12359;49.716;9.212;2023-03-19T06:58:06;8.70;26.00
24224;DHT22;12359;49.716;9.212;2023-03-19T07:00:33;8.90;25.90
24224;DHT22;12359;49.716;9.212;2023-03-19T07:02:58;9.00;24.30
24224;DHT22;12359;49.716;9.212;2023-03-19T07:05:24;9.00;16.60
24224;DHT22;12359;49.716;9.212;2023-03-19T07:07:50;9.20;17.70
24224;DHT22;12359;49.716;9.212;2023-03-19T07:10:20;9.30;12.00
24224;DHT22;12359;49.716;9.212;2023-03-19T07:12:46;9.50;9.00
24224;DHT22;12359;49.716;9.212;2023-03-19T07:15:12;9.50;4.70
24224;DHT22;12359;49.716;9.212;2023-03-19T07:17:38;9.50;1.00
24224;DHT22;12359;49.716;9.212;2023-03-19T07:20:04;9.50;1.00
24224;DHT22;12359;49.716;9.212;2023-03-19T07:22:29;9.50;1.00
24224;DHT22;12359;49.716;9.212;2023-03-19T07:24:55;9.60;1.00
24224;DHT22;12359;49.716;9.212;2023-03-19T07:27:21;9.70;1.00
24224;DHT22;12359;49.716;9.212;2023-03-19T07:29:47;9.70;1.00
24224;DHT22;12359;49.716;9.212;2023-03-19T07:32:12;9.70;1.00
24224;DHT22;12359;49.716;9.212;2023-03-19T07:34:38;9.80;1.00
24224;DHT22;12359;49.716;9.212;2023-03-19T07:37:04;9.80;1.00
24224;DHT22;12359;49.716;9.212;2023-03-19T07:39:29;9.80;1.00
24224;DHT22;12359;49.716;9.212;2023-03-19T07:41:55;9.80;1.00
24224;DHT22;12359;49.716;9.212;2023-03-19T07:44:21;9.80;1.00
24224;DHT22;12359;49.716;9.212;2023-03-19T07:46:47;9.90;1.00
24224;DHT22;12359;49.716;9.212;2023-03-19T07:49:12;9.90;1.00
24224;DHT22;12359;49.716;9.212;2023-03-19T07:51:38;10.00;1.00
24224;DHT22;12359;49.716;9.212;2023-03-19T07:54:04;10.00;1.00
24224;DHT22;12359;49.716;9.212;2023-03-19T07:56:29;10.10;1.00
24224;DHT22;12359;49.716;9.212;2023-03-19T07:58:55;10.20;1.00
24224;DHT22;12359;49.716;9.212;2023-03-19T08:01:21;10.30;1.00
24224;DHT22;12359;49.716;9.212;2023-03-19T08:03:46;10.40;1.00
24224;DHT22;12359;49.716;9.212;2023-03-19T08:06:13;10.50;1.00
24224;DHT22;12359;49.716;9.212;2023-03-19T08:08:39;10.60;1.00
24224;DHT22;12359;49.716;9.212;2023-03-19T08:11:05;10.70;1.00
24224;DHT22;12359;49.716;9.212;2023-03-19T08:13:32;10.80;1.00
24224;DHT22;12359;49.716;9.212;2023-03-19T08:15:57;10.90;1.00
24224;DHT22;12359;49.716;9.212;2023-03-19T08:18:23;11.10;1.00
24224;DHT22;12359;49.716;9.212;2023-03-19T08:20:49;11.30;1.00
24224;DHT22;12359;49.716;9.212;2023-03-19T08:23:15;11.60;99.90
24224;DHT22;12359;49.716;9.212;2023-03-19T08:25:41;11.80;99.90
24224;DHT22;12359;49.716;9.212;2023-03-19T08:28:07;12.10;99.90
24224;DHT22;12359;49.716;9.212;2023-03-19T08:30:35;12.20;99.90
24224;DHT22;12359;49.716;9.212;2023-03-19T08:33:02;12.50;99.90
24224;DHT22;12359;49.716;9.212;2023-03-19T08:35:28;12.80;99.90
24224;DHT22;12359;49.716;9.212;2023-03-19T08:37:54;13.00;1.00
24224;DHT22;12359;49.716;9.212;2023-03-19T08:40:21;13.40;1.00
24224;DHT22;12359;49.716;9.212;2023-03-19T08:42:46;13.80;99.90
24224;DHT22;12359;49.716;9.212;2023-03-19T08:45:14;13.80;1.00
24224;DHT22;12359;49.716;9.212;2023-03-19T08:47:40;13.90;21.00
24224;DHT22;12359;49.716;9.212;2023-03-19T08:50:08;13.90;1.00
24224;DHT22;12359;49.716;9.212;2023-03-19T08:52:33;14.00;99.90
24224;DHT22;12359;49.716;9.212;2023-03-19T08:54:59;14.20;99.90
24224;DHT22;12359;49.716;9.212;2023-03-19T08:57:25;14.50;99.90
24224;DHT22;12359;49.716;9.212;2023-03-19T08:59:53;14.30;99.90
24224;DHT22;12359;49.716;9.212;2023-03-19T09:02:19;14.80;96.30
24224;DHT22;12359;49.716;9.212;2023-03-19T09:04:45;15.40;99.90
24224;DHT22;12359;49.716;9.212;2023-03-19T09:07:11;15.60;42.70
24224;DHT22;12359;49.716;9.212;2023-03-19T09:09:39;15.70;1.00
24224;DHT22;12359;49.716;9.212;2023-03-19T09:12:06;15.90;99.90
24224;DHT22;12359;49.716;9.212;2023-03-19T09:14:32;16.00;1.00
24224;DHT22;12359;49.716;9.212;2023-03-19T09:16:58;16.20;99.90
24224;DHT22;12359;49.716;9.212;2023-03-19T09:19:24;17.00;1.00
24224;DHT22;12359;49.716;9.212;2023-03-19T09:21:50;17.50;99.90
24224;DHT22;12359;49.716;9.212;2023-03-19T09:24:16;18.10;1.00
24224;DHT22;12359;49.716;9.212;2023-03-19T09:26:43;18.30;99.90
24224;DHT22;12359;49.716;9.212;2023-03-19T09:29:09;18.60;99.90
24224;DHT22;12359;49.716;9.212;2023-03-19T09:31:36;18.80;99.90
24224;DHT22;12359;49.716;9.212;2023-03-19T09:34:02;19.10;99.90
24224;DHT22;12359;49.716;9.212;2023-03-19T09:36:27;19.30;99.90
24224;DHT22;12359;49.716;9.212;2023-03-19T09:38:53;19.20;90.00
24224;DHT22;12359;49.716;9.212;2023-03-19T09:44:29;19.00;35.00
24224;DHT22;12359;49.716;9.212;2023-03-19T09:49:35;19.70;34.20
24224;DHT22;12359;49.716;9.212;2023-03-19T09:54:48;20.80;1.50
24224;DHT22;12359;49.716;9.212;2023-03-19T09:57:17;21.60;1.00
24224;DHT22;12359;49.716;9.212;2023-03-19T09:59:44;22.30;1.00
24224;DHT22;12359;49.716;9.212;2023-03-19T10:02:39;22.40;1.00
24224;DHT22;12359;49.716;9.212;2023-03-19T10:08:01;24.10;1.00
24224;DHT22;12359;49.716;9.212;2023-03-19T10:13:37;23.20;1.00
24224;DHT22;12359;49.716;9.212;2023-03-19T10:16:13;21.40;1.00
24224;DHT22;12359;49.716;9.212;2023-03-19T10:18:45;20.30;1.00
24224;DHT22;12359;49.716;9.212;2023-03-19T10:21:27;19.90;1.00
24224;DHT22;12359;49.716;9.212;2023-03-19T10:23:56;20.00;1.00
24224;DHT22;12359;49.716;9.212;2023-03-19T10:26:33;20.30;1.00
24224;DHT22;12359;49.716;9.212;2023-03-19T10:31:48;20.80;1.00
24224;DHT22;12359;49.716;9.212;2023-03-19T10:34:36;20.90;1.00
24224;DHT22;12359;49.716;9.212;2023-03-19T10:37:14;20.80;1.00
24224;DHT22;12359;49.716;9.212;2023-03-19T10:39:44;20.70;1.00
24224;DHT22;12359;49.716;9.212;2023-03-19T10:47:51;21.00;1.00
24224;DHT22;12359;49.716;9.212;2023-03-19T10:50:20;21.70;1.00
24224;DHT22;12359;49.716;9.212;2023-03-19T10:52:55;21.60;1.00
24224;DHT22;12359;49.716;9.212;2023-03-19T10:55:25;21.00;1.00
24224;DHT22;12359;49.716;9.212;2023-03-19T10:58:15;20.50;1.00
24224;DHT22;12359;49.716;9.212;2023-03-19T11:00:45;19.90;1.00
24224;DHT22;12359;49.716;9.212;2023-03-19T11:03:31;19.90;1.00
24224;DHT22;12359;49.716;9.212;2023-03-19T11:06:04;19.80;1.00
24224;DHT22;12359;49.716;9.212;2023-03-19T11:08:33;19.50;1.00
24224;DHT22;12359;49.716;9.212;2023-03-19T11:10:59;19.30;1.00
24224;DHT22;12359;49.716;9.212;2023-03-19T11:13:26;19.40;1.00
24224;DHT22;12359;49.716;9.212;2023-03-19T11:15:56;19.30;1.00
24224;DHT22;12359;49.716;9.212;2023-03-19T11:18:36;19.60;1.00
24224;DHT22;12359;49.716;9.212;2023-03-19T11:21:20;20.00;1.00
24224;DHT22;12359;49.716;9.212;2023-03-19T11:23:51;20.20;1.00
24224;DHT22;12359;49.716;9.212;2023-03-19T11:26:18;20.30;1.00
24224;DHT22;12359;49.716;9.212;2023-03-19T11:28:49;20.40;1.00
24224;DHT22;12359;49.716;9.212;2023-03-19T11:31:43;20.30;1.00
24224;DHT22;12359;49.716;9.212;2023-03-19T11:34:50;19.90;1.00
24224;DHT22;12359;49.716;9.212;2023-03-19T11:46:02;19.40;1.00
24224;DHT22;12359;49.716;9.212;2023-03-19T11:54:21;19.10;1.00
24224;DHT22;12359;49.716;9.212;2023-03-19T11:56:49;19.40;1.00
24224;DHT22;12359;49.716;9.212;2023-03-19T12:05:18;20.40;1.00
24224;DHT22;12359;49.716;9.212;2023-03-19T12:08:15;20.70;1.00
24224;DHT22;12359;49.716;9.212;2023-03-19T12:33:18;20.60;1.00
24224;DHT22;12359;49.716;9.212;2023-03-19T12:35:49;20.60;1.00
24224;DHT22;12359;49.716;9.212;2023-03-19T12:41:08;20.60;1.00
24224;DHT22;12359;49.716;9.212;2023-03-19T12:49:01;20.80;1.00
24224;DHT22;12359;49.716;9.212;2023-03-19T12:51:31;20.70;1.00
24224;DHT22;12359;49.716;9.212;2023-03-19T12:54:17;20.60;1.00
24224;DHT22;12359;49.716;9.212;2023-03-19T12:56:47;20.50;1.00
24224;DHT22;12359;49.716;9.212;2023-03-19T13:01:56;20.20;1.00
24224;DHT22;12359;49.716;9.212;2023-03-19T13:04:28;20.10;1.00
24224;DHT22;12359;49.716;9.212;2023-03-19T13:06:59;20.10;1.00
24224;DHT22;12359;49.716;9.212;2023-03-19T13:18:16;20.10;1.00
24224;DHT22;12359;49.716;9.212;2023-03-19T13:23:13;19.90;1.00
24224;DHT22;12359;49.716;9.212;2023-03-19T13:25:44;19.90;1.00
24224;DHT22;12359;49.716;9.212;2023-03-19T13:31:00;19.80;1.00
24224;DHT22;12359;49.716;9.212;2023-03-19T13:33:26;19.80;1.00
24224;DHT22;12359;49.716;9.212;2023-03-19T13:35:54;19.70;1.00
24224;DHT22;12359;49.716;9.212;2023-03-19T13:38:25;19.70;1.00
24224;DHT22;12359;49.716;9.212;2023-03-19T13:40:56;19.40;1.00
24224;DHT22;12359;49.716;9.212;2023-03-19T13:43:39;19.10;1.00
24224;DHT22;12359;49.716;9.212;2023-03-19T13:59:32;17.90;1.00
24224;DHT22;12359;49.716;9.212;2023-03-19T14:01:59;17.60;1.00
24224;DHT22;12359;49.716;9.212;2023-03-19T14:04:33;17.30;1.00
24224;DHT22;12359;49.716;9.212;2023-03-19T14:07:11;17.00;53.80
24224;DHT22;12359;49.716;9.212;2023-03-19T14:10:03;16.70;1.00
24224;DHT22;12359;49.716;9.212;2023-03-19T14:12:36;16.40;99.90
24224;DHT22;12359;49.716;9.212;2023-03-19T14:22:37;15.50;62.10
24224;DHT22;12359;49.716;9.212;2023-03-19T14:27:50;15.60;99.90
24224;DHT22;12359;49.716;9.212;2023-03-19T14:30:30;15.70;99.90
24224;DHT22;12359;49.716;9.212;2023-03-19T14:33:01;15.80;97.00
24224;DHT22;12359;49.716;9.212;2023-03-19T14:35:32;15.90;2.30
24224;DHT22;12359;49.716;9.212;2023-03-19T14:38:09;16.00;1.00
24224;DHT22;12359;49.716;9.212;2023-03-19T14:40:44;16.20;15.60
24224;DHT22;12359;49.716;9.212;2023-03-19T14:45:59;16.30;1.00
24224;DHT22;12359;49.716;9.212;2023-03-19T14:51:35;16.50;99.90
24224;DHT22;12359;49.716;9.212;2023-03-19T14:56:36;16.40;99.90
24224;DHT22;12359;49.716;9.212;2023-03-19T14:59:02;16.60;99.90
24224;DHT22;12359;49.716;9.212;2023-03-19T15:01:33;16.60;5.20
24224;DHT22;12359;49.716;9.212;2023-03-19T15:04:08;16.70;99.90
24224;DHT22;12359;49.716;9.212;2023-03-19T15:06:39;16.80;1.00
24224;DHT22;12359;49.716;9.212;2023-03-19T15:09:29;17.00;1.00
24224;DHT22;12359;49.716;9.212;2023-03-19T15:17:24;17.30;1.00
24224;DHT22;12359;49.716;9.212;2023-03-19T15:19:52;17.10;99.90
24224;DHT22;12359;49.716;9.212;2023-03-19T15:22:20;17.00;22.80
24224;DHT22;12359;49.716;9.212;2023-03-19T15:24:47;16.80;51.40
24224;DHT22;12359;49.716;9.212;2023-03-19T15:29:44;16.80;99.90
24224;DHT22;12359;49.716;9.212;2023-03-19T15:32:10;16.70;1.00
24224;DHT22;12359;49.716;9.212;2023-03-19T15:34:36;16.80;1.00
24224;DHT22;12359;49.716;9.212;2023-03-19T15:37:10;16.70;1.00
24224;DHT22;12359;49.716;9.212;2023-03-19T15:39:44;16.70;99.90
24224;DHT22;12359;49.716;9.212;2023-03-19T15:42:11;16.70;39.90
24224;DHT22;12359;49.716;9.212;2023-03-19T15:44:43;16.70;1.00
24224;DHT22;12359;49.716;9.212;2023-03-19T15:47:19;16.50;1.00
24224;DHT22;12359;49.716;9.212;2023-03-19T15:50:03;16.30;44.80
24224;DHT22;12359;49.716;9.212;2023-03-19T15:52:32;16.10;99.90
24224;DHT22;12359;49.716;9.212;2023-03-19T15:55:01;16.00;93.90
24224;DHT22;12359;49.716;9.212;2023-03-19T15:57:27;15.80;99.90
24224;DHT22;12359;49.716;9.212;2023-03-19T15:59:55;15.70;99.90
24224;DHT22;12359;49.716;9.212;2023-03-19T16:02:32;15.60;99.90
24224;DHT22;12359;49.716;9.212;2023-03-19T16:04:59;15.40;99.90
24224;DHT22;12359;49.716;9.212;2023-03-19T16:07:34;15.40;1.00
24224;DHT22;12359;49.716;9.212;2023-03-19T16:10:30;15.30;1.00
24224;DHT22;12359;49.716;9.212;2023-03-19T16:12:56;15.20;99.90
24224;DHT22;12359;49.716;9.212;2023-03-19T16:15:42;15.20;99.90
24224;DHT22;12359;49.716;9.212;2023-03-19T16:21:04;15.10;99.90
24224;DHT22;12359;49.716;9.212;2023-03-19T16:23:37;15.10;1.00
24224;DHT22;12359;49.716;9.212;2023-03-19T16:26:35;15.00;99.90
24224;DHT22;12359;49.716;9.212;2023-03-19T16:29:06;15.00;99.90
24224;DHT22;12359;49.716;9.212;2023-03-19T16:31:41;15.00;99.90
24224;DHT22;12359;49.716;9.212;2023-03-19T16:34:40;14.90;99.90
24224;DHT22;12359;49.716;9.212;2023-03-19T16:47:49;14.70;57.70
24224;DHT22;12359;49.716;9.212;2023-03-19T16:50:17;14.70;1.00
24224;DHT22;12359;49.716;9.212;2023-03-19T16:52:44;14.70;22.00
24224;DHT22;12359;49.716;9.212;2023-03-19T16:55:22;14.60;99.90
24224;DHT22;12359;49.716;9.212;2023-03-19T17:00:32;14.60;99.90
24224;DHT22;12359;49.716;9.212;2023-03-19T17:02:59;14.60;1.00
24224;DHT22;12359;49.716;9.212;2023-03-19T17:05:27;14.50;1.00
24224;DHT22;12359;49.716;9.212;2023-03-19T17:07:53;14.40;49.30
24224;DHT22;12359;49.716;9.212;2023-03-19T17:10:25;14.30;99.90
24224;DHT22;12359;49.716;9.212;2023-03-19T17:12:53;14.20;99.90
24224;DHT22;12359;49.716;9.212;2023-03-19T17:15:35;14.20;99.90
24224;DHT22;12359;49.716;9.212;2023-03-19T17:18:03;14.10;99.90
24224;DHT22;12359;49.716;9.212;2023-03-19T17:20:35;13.90;1.00
24224;DHT22;12359;49.716;9.212;2023-03-19T17:23:11;13.80;11.50
24224;DHT22;12359;49.716;9.212;2023-03-19T17:25:37;13.80;27.70
24224;DHT22;12359;49.716;9.212;2023-03-19T17:28:03;13.70;63.20
24224;DHT22;12359;49.716;9.212;2023-03-19T17:30:28;13.70;99.90
24224;DHT22;12359;49.716;9.212;2023-03-19T17:32:54;13.60;99.90
24224;DHT22;12359;49.716;9.212;2023-03-19T17:35:21;13.60;99.90
24224;DHT22;12359;49.716;9.212;2023-03-19T17:37:48;13.60;99.90
24224;DHT22;12359;49.716;9.212;2023-03-19T17:42:41;13.40;99.90
24224;DHT22;12359;49.716;9.212;2023-03-19T17:45:10;13.40;99.90
24224;DHT22;12359;49.716;9.212;2023-03-19T17:47:36;13.30;99.90
24224;DHT22;12359;49.716;9.212;2023-03-19T17:50:03;13.30;99.90
24224;DHT22;12359;49.716;9.212;2023-03-19T17:52:30;13.30;99.90
24224;DHT22;12359;49.716;9.212;2023-03-19T17:54:56;13.10;99.90
24224;DHT22;12359;49.716;9.212;2023-03-19T17:57:21;13.10;99.90
24224;DHT22;12359;49.716;9.212;2023-03-19T17:59:47;13.10;99.90
24224;DHT22;12359;49.716;9.212;2023-03-19T18:02:26;13.00;99.90
24224;DHT22;12359;49.716;9.212;2023-03-19T18:04:52;12.90;99.90
24224;DHT22;12359;49.716;9.212;2023-03-19T18:07:18;12.80;99.90
24224;DHT22;12359;49.716;9.212;2023-03-19T18:09:43;12.70;99.90
24224;DHT22;12359;49.716;9.212;2023-03-19T18:12:09;12.70;99.90
24224;DHT22;12359;49.716;9.212;2023-03-19T18:14:35;12.60;99.90
24224;DHT22;12359;49.716;9.212;2023-03-19T18:17:01;12.60;99.90
24224;DHT22;12359;49.716;9.212;2023-03-19T18:19:32;12.60;99.90
24224;DHT22;12359;49.716;9.212;2023-03-19T18:21:59;12.50;99.90
24224;DHT22;12359;49.716;9.212;2023-03-19T18:24:25;12.40;99.90
24224;DHT22;12359;49.716;9.212;2023-03-19T18:26:51;12.30;1.00